createdAt,value
2019-06-10T00:04:25.601Z,1.53
2019-06-10T00:09:27.700Z,1.60
2019-06-10T00:14:31.457Z,1.43
2019-06-10T00:19:33.693Z,1.60
2019-06-10T00:24:35.800Z,1.73
2019-06-10T00:29:37.724Z,1.80
2019-06-10T00:34:41.930Z,1.70
2019-06-10T00:39:44.653Z,1.70
2019-06-10T00:44:46.531Z,1.70
2019-06-10T00:49:51.289Z,1.70
2019-06-10T00:54:54.555Z,2.17
2019-06-10T01:00:01.217Z,2.10
2019-06-10T01:05:03.146Z,1.87
2019-06-10T01:10:06.748Z,1.93
2019-06-10T01:15:12.111Z,1.80
2019-06-10T01:20:15.985Z,1.90
2019-06-10T01:25:18.068Z,1.87
2019-06-10T01:30:26.486Z,2.00
2019-06-10T01:35:25.601Z,1.90
2019-06-10T01:40:31.304Z,2.10
2019-06-10T01:45:33.264Z,1.90
2019-06-10T01:50:36.134Z,1.97
2019-06-10T01:55:38.684Z,2.20
2019-06-10T02:00:56.575Z,2.20
2019-06-10T02:06:01.575Z,2.23
2019-06-10T02:11:03.756Z,2.40
2019-06-10T02:16:06.808Z,2.30
2019-06-10T02:21:14.305Z,2.33
2019-06-10T02:26:16.184Z,2.33
2019-06-10T02:31:24.542Z,2.73
2019-06-10T02:36:30.895Z,2.43
2019-06-10T02:41:31.842Z,3.03
2019-06-10T02:46:36.037Z,2.50
2019-06-10T02:51:37.059Z,2.73
2019-06-10T02:56:39.129Z,2.37
2019-06-10T03:01:43.991Z,2.97
2019-06-10T03:06:46.513Z,2.57
2019-06-10T03:11:53.336Z,2.83
2019-06-10T03:16:57.213Z,2.97
2019-06-10T03:21:59.312Z,2.50
2019-06-10T03:27:02.695Z,3.07
2019-06-10T03:32:05.835Z,2.80
2019-06-10T03:37:07.758Z,3.10
2019-06-10T03:42:09.838Z,2.80
2019-06-10T03:47:12.193Z,2.70
2019-06-10T03:52:14.435Z,3.00
2019-06-10T03:57:17.159Z,3.30
2019-06-10T04:02:19.460Z,3.00
2019-06-10T04:07:27.343Z,2.60
2019-06-10T04:12:27.858Z,2.80
2019-06-10T04:17:33.348Z,2.67
2019-06-10T04:22:35.140Z,2.50
2019-06-10T04:27:39.387Z,2.80
2019-06-10T04:32:42.991Z,3.10
2019-06-10T04:37:45.284Z,2.90
2019-06-10T04:42:47.477Z,2.90
2019-06-10T04:47:52.377Z,3.00
2019-06-10T04:52:54.552Z,3.13
2019-06-10T04:57:56.449Z,3.33
2019-06-10T05:02:58.855Z,3.33
2019-06-10T05:08:02.682Z,2.90
2019-06-10T05:13:04.983Z,3.43
2019-06-10T05:18:07.328Z,2.83
2019-06-10T05:23:12.626Z,3.00
2019-06-10T05:28:16.550Z,3.30
2019-06-10T05:33:20.029Z,3.40
2019-06-10T05:38:27.523Z,2.70
2019-06-10T05:43:32.924Z,3.17
2019-06-10T05:48:36.733Z,3.40
2019-06-10T05:53:42.183Z,3.60
2019-06-10T05:58:45.822Z,3.33
2019-06-10T06:03:52.654Z,3.33
2019-06-10T06:08:56.593Z,3.33
2019-06-10T06:13:58.542Z,3.30
2019-06-10T06:19:03.270Z,3.23
2019-06-10T06:24:07.362Z,3.30
2019-06-10T06:29:12.820Z,3.50
2019-06-10T06:34:14.352Z,3.40
2019-06-10T06:39:17.821Z,3.53
2019-06-10T06:44:23.407Z,3.87
2019-06-10T06:49:25.848Z,3.23
2019-06-10T06:54:30.537Z,3.53
2019-06-10T06:59:36.969Z,3.50
2019-06-10T07:04:38.821Z,4.40
2019-06-10T07:09:44.188Z,4.57
2019-06-10T07:14:52.637Z,4.20
2019-06-10T07:19:57.627Z,4.10
2019-06-10T07:25:06.481Z,4.70
2019-06-10T07:30:14.626Z,4.13
2019-06-10T07:40:27.290Z,3.30
2019-06-10T07:45:29.889Z,3.73
2019-06-10T07:50:34.992Z,3.90
2019-06-10T07:55:44.762Z,3.40
2019-06-10T08:00:48.356Z,3.20
2019-06-10T08:05:52.766Z,3.80
2019-06-10T08:10:54.896Z,3.43
2019-06-10T08:15:58.726Z,3.70
2019-06-10T08:21:03.169Z,3.37
2019-06-10T08:26:08.491Z,3.17
2019-06-10T08:31:12.467Z,3.57
2019-06-10T08:36:14.775Z,2.90
2019-06-10T08:41:17.720Z,2.33
2019-06-10T08:46:22.599Z,2.47
2019-06-10T08:51:26.180Z,3.27
2019-06-10T08:56:28.626Z,2.57
2019-06-10T09:01:33.583Z,2.47
2019-06-10T09:06:38.701Z,2.20
2019-06-10T09:11:47.447Z,1.90
2019-06-10T09:16:51.892Z,2.00
2019-06-10T09:21:56.543Z,2.20
2019-06-10T09:27:02.698Z,2.00
2019-06-10T09:32:04.109Z,1.80
2019-06-10T09:37:06.997Z,2.07
2019-06-10T09:42:08.986Z,2.20
2019-06-10T09:47:14.582Z,2.10
2019-06-10T09:52:17.962Z,2.67
2019-06-10T09:57:23.866Z,2.10
2019-06-10T10:02:27.036Z,2.33
2019-06-10T10:07:32.590Z,1.70
2019-06-10T10:12:35.673Z,1.90
2019-06-10T10:17:38.062Z,1.80
2019-06-10T10:22:44.085Z,1.50
2019-06-10T10:27:51.228Z,1.50
2019-06-10T10:32:54.052Z,1.60
2019-06-10T10:37:58.369Z,1.63
2019-06-10T10:43:19.806Z,1.50
2019-06-10T10:48:04.717Z,1.30
2019-06-10T10:53:09.480Z,1.67
2019-06-10T10:58:13.593Z,1.97
2019-06-10T11:03:17.060Z,1.60
2019-06-10T11:08:22.800Z,2.07
2019-06-10T11:13:27.795Z,2.17
2019-06-10T11:18:34.018Z,2.10
2019-06-10T11:23:38.231Z,1.80
2019-06-10T11:28:43.332Z,1.70
2019-06-10T11:33:48.702Z,1.50
2019-06-10T11:38:57.382Z,1.63
2019-06-10T11:44:00.785Z,1.37
2019-06-10T11:49:05.566Z,1.30
2019-06-10T11:54:12.906Z,1.50
2019-06-10T11:59:16.106Z,1.30
2019-06-10T12:04:18.381Z,1.23
2019-06-10T12:09:22.884Z,1.20
2019-06-10T12:14:27.196Z,1.30
2019-06-10T12:19:29.302Z,3.33
2019-06-10T12:24:33.171Z,8.77
2019-06-10T12:29:35.131Z,2.00
2019-06-10T12:34:37.219Z,1.30
2019-06-10T12:39:42.056Z,1.57
2019-06-10T12:44:44.662Z,2.27
2019-06-10T12:49:46.668Z,2.97
2019-06-10T12:54:48.552Z,5.27
2019-06-10T12:59:52.245Z,2.93
2019-06-10T13:04:55.538Z,2.23
2019-06-10T13:09:57.896Z,1.30
2019-06-10T13:15:03.349Z,1.50
2019-06-10T13:20:06.434Z,2.40
2019-06-10T13:25:09.936Z,1.70
2019-06-10T13:30:12.260Z,5.13
2019-06-10T13:35:14.591Z,2.83
2019-06-10T13:40:17.582Z,1.70
2019-06-10T13:45:19.932Z,1.20
2019-06-10T13:50:25.024Z,1.40
2019-06-10T13:55:26.116Z,1.10
2019-06-10T14:00:41.722Z,1.20
2019-06-10T14:05:34.353Z,1.10
2019-06-10T14:10:36.723Z,1.30
2019-06-10T14:15:38.709Z,1.10
2019-06-10T14:20:44.053Z,1.43
2019-06-10T14:25:45.127Z,1.30
2019-06-10T14:30:47.255Z,1.43
2019-06-10T14:35:49.091Z,1.43
2019-06-10T14:40:52.612Z,1.50
2019-06-10T14:45:54.965Z,1.30
2019-06-10T14:50:57.091Z,1.70
2019-06-10T14:55:59.007Z,1.67
2019-06-10T15:01:04.834Z,2.20
2019-06-10T15:06:09.174Z,1.50
2019-06-10T15:11:13.727Z,1.50
2019-06-10T15:16:18.314Z,1.60
2019-06-10T15:21:23.289Z,1.63
2019-06-10T15:26:29.066Z,1.80
2019-06-10T15:31:34.273Z,2.13
2019-06-10T15:36:37.764Z,2.20
2019-06-10T15:41:44.041Z,1.47
2019-06-10T15:46:48.116Z,1.83
2019-06-10T15:51:52.565Z,1.87
2019-06-10T15:56:56.796Z,1.87
2019-06-10T16:01:59.099Z,1.77
2019-06-10T16:07:02.558Z,1.90
2019-06-10T16:12:07.862Z,2.00
2019-06-10T16:17:12.916Z,2.27
2019-06-10T16:22:17.477Z,2.33
2019-06-10T16:27:23.020Z,2.27
2019-06-10T16:32:27.547Z,2.50
2019-06-10T16:37:32.799Z,2.23
2019-06-10T16:42:37.968Z,2.50
2019-06-10T16:47:43.636Z,2.43
2019-06-10T16:52:46.076Z,2.27
2019-06-10T16:57:58.838Z,2.40
2019-06-10T17:02:56.270Z,1.83
2019-06-10T17:08:00.097Z,2.13
2019-06-10T17:13:07.201Z,2.23
2019-06-10T17:18:09.705Z,2.00
2019-06-10T17:23:26.665Z,2.20
2019-06-10T17:28:36.207Z,2.00
2019-06-10T17:33:36.612Z,1.63
2019-06-10T17:38:42.999Z,1.67
2019-06-10T17:43:49.312Z,1.93
2019-06-10T17:48:52.989Z,1.57
2019-06-10T17:59:14.916Z,2.07
2019-06-10T18:04:22.194Z,2.00
2019-06-10T18:09:27.832Z,1.70
2019-06-10T18:14:33.286Z,1.77
2019-06-10T18:19:37.957Z,1.73
2019-06-10T18:24:43.106Z,1.90
2019-06-10T18:29:47.069Z,1.60
2019-06-10T18:34:54.224Z,1.80
2019-06-10T18:39:58.855Z,1.67
2019-06-10T18:45:02.725Z,2.07
2019-06-10T18:50:12.588Z,2.23
2019-06-10T18:55:16.622Z,2.10
2019-06-10T19:00:23.046Z,2.27
2019-06-10T19:05:28.573Z,2.00
2019-06-10T19:10:34.270Z,2.13
2019-06-10T19:15:40.466Z,2.20
2019-06-10T19:20:45.715Z,2.00
2019-06-10T19:25:52.503Z,2.03
2019-06-10T19:31:02.819Z,2.03
2019-06-10T19:36:06.160Z,2.00
2019-06-10T19:41:13.672Z,2.10
2019-06-10T19:46:17.269Z,2.10
2019-06-10T19:51:20.523Z,2.33
2019-06-10T19:56:26.530Z,2.10
2019-06-10T20:01:30.063Z,2.10
2019-06-10T20:06:35.722Z,2.23
2019-06-10T20:11:38.887Z,2.10
2019-06-10T20:16:44.665Z,1.97
2019-06-10T20:21:49.168Z,2.40
2019-06-10T20:26:52.922Z,2.30
2019-06-10T20:31:55.321Z,2.00
2019-06-10T20:37:04.283Z,1.67
2019-06-10T20:42:07.978Z,1.90
2019-06-10T20:47:13.976Z,2.00
2019-06-10T20:52:15.023Z,2.10
2019-06-10T20:57:18.251Z,2.10
2019-06-10T21:02:22.521Z,2.10
2019-06-10T21:07:27.054Z,2.00
2019-06-10T21:12:32.698Z,2.10
2019-06-10T21:17:35.030Z,2.40
2019-06-10T21:22:37.089Z,2.30
2019-06-10T21:27:40.626Z,2.40
2019-06-10T21:32:45.295Z,2.40
2019-06-10T21:37:48.239Z,1.80
2019-06-10T21:42:53.746Z,1.83
2019-06-10T21:47:57.509Z,2.20
2019-06-10T21:53:02.637Z,2.23
2019-06-10T21:58:06.346Z,2.33
2019-06-10T22:03:09.063Z,2.10
2019-06-10T22:08:12.531Z,2.27
2019-06-10T22:13:14.771Z,2.30
2019-06-10T22:18:16.629Z,2.23
2019-06-10T22:23:18.730Z,2.40
2019-06-10T22:28:22.182Z,2.20
2019-06-10T22:33:24.474Z,2.00
2019-06-10T22:38:26.437Z,2.47
2019-06-10T22:43:28.345Z,2.17
2019-06-10T22:48:30.299Z,2.33
2019-06-10T22:53:34.248Z,2.77
2019-06-10T22:58:36.255Z,2.30
2019-06-10T23:03:38.286Z,2.70
2019-06-10T23:08:40.283Z,2.60
2019-06-10T23:13:42.504Z,2.73
2019-06-10T23:18:44.451Z,3.00
2019-06-10T23:23:46.641Z,2.80
2019-06-10T23:28:49.597Z,3.10
2019-06-10T23:33:55.964Z,3.27
2019-06-10T23:38:57.071Z,3.07
2019-06-10T23:43:59.233Z,2.67
2019-06-10T23:49:04.375Z,2.70
2019-06-10T23:54:06.305Z,2.67
2019-06-10T23:59:08.340Z,2.83
